createdAt,value
2017-08-18T00:00:02.763Z,21.34
2017-08-18T00:02:31.072Z,21.28
2017-08-18T00:04:58.979Z,21.24
2017-08-18T00:07:26.920Z,21.26
2017-08-18T00:09:54.833Z,21.13
2017-08-18T00:12:23.130Z,21.19
2017-08-18T00:14:51.035Z,21.15
2017-08-18T00:17:19.137Z,21.13
2017-08-18T00:19:47.043Z,21.08
2017-08-18T00:22:14.953Z,21.06
2017-08-18T00:24:42.872Z,21.14
2017-08-18T00:27:11.167Z,21.08
2017-08-18T00:29:39.192Z,21.13
2017-08-18T00:32:07.091Z,21.09
2017-08-18T00:34:35.391Z,21.05
2017-08-18T00:37:03.297Z,21.04
2017-08-18T00:39:31.213Z,21.04
2017-08-18T00:41:59.383Z,20.99
2017-08-18T00:44:27.303Z,21.01
2017-08-18T00:46:55.202Z,20.96
2017-08-18T00:49:23.127Z,20.97
2017-08-18T00:51:51.040Z,21.10
2017-08-18T00:54:19.357Z,21.19
2017-08-18T00:56:47.255Z,21.34
2017-08-18T00:59:15.155Z,21.36
2017-08-18T01:01:43.472Z,21.49
2017-08-18T01:04:11.379Z,21.56
2017-08-18T01:06:39.310Z,21.73
2017-08-18T01:09:07.206Z,21.77
2017-08-18T01:11:35.119Z,21.73
2017-08-18T01:14:03.422Z,21.85
2017-08-18T01:16:31.545Z,21.77
2017-08-18T01:18:59.456Z,21.76
2017-08-18T01:21:27.358Z,21.81
2017-08-18T01:23:55.280Z,21.85
2017-08-18T01:26:23.589Z,21.96
2017-08-18T01:28:51.498Z,21.96
2017-08-18T01:31:19.408Z,22.03
2017-08-18T01:33:47.315Z,22.02
2017-08-18T01:36:15.304Z,21.87
2017-08-18T01:38:43.377Z,21.82
2017-08-18T01:41:11.278Z,21.91
2017-08-18T01:43:39.188Z,21.85
2017-08-18T01:46:07.110Z,21.87
2017-08-18T01:48:35.398Z,21.75
2017-08-18T01:51:03.310Z,21.75
2017-08-18T01:53:31.210Z,21.84
2017-08-18T01:55:59.629Z,21.81
2017-08-18T01:58:27.557Z,21.61
2017-08-18T02:00:55.820Z,21.55
2017-08-18T02:03:23.730Z,21.40
2017-08-18T02:05:51.646Z,21.41
2017-08-18T02:08:19.560Z,21.21
2017-08-18T02:10:47.487Z,21.09
2017-08-18T02:13:15.395Z,20.93
2017-08-18T02:15:43.708Z,20.82
2017-08-18T02:18:11.850Z,20.75
2017-08-18T02:20:39.760Z,20.68
2017-08-18T02:23:07.659Z,20.74
2017-08-18T02:25:35.578Z,20.68
2017-08-18T02:28:03.488Z,20.66
2017-08-18T02:30:31.398Z,20.82
2017-08-18T02:32:59.296Z,20.83
2017-08-18T02:35:27.206Z,20.79
2017-08-18T02:37:55.109Z,20.71
2017-08-18T02:40:23.226Z,20.65
2017-08-18T02:42:51.137Z,20.60
2017-08-18T02:45:19.443Z,20.53
2017-08-18T02:47:47.601Z,20.42
2017-08-18T02:50:15.499Z,20.39
2017-08-18T02:52:43.425Z,20.33
2017-08-18T02:55:11.733Z,20.39
2017-08-18T02:57:39.639Z,20.38
2017-08-18T03:00:07.549Z,20.30
2017-08-18T03:02:35.581Z,20.19
2017-08-18T03:05:03.488Z,20.12
2017-08-18T03:07:31.397Z,20.14
2017-08-18T03:09:59.320Z,20.11
2017-08-18T03:12:27.824Z,20.06
2017-08-18T03:14:55.745Z,19.94
2017-08-18T03:17:23.643Z,19.95
2017-08-18T03:19:51.555Z,20.00
2017-08-18T03:22:19.460Z,20.01
2017-08-18T03:24:47.930Z,19.98
2017-08-18T03:27:16.139Z,20.00
2017-08-18T03:29:44.060Z,19.96
2017-08-18T03:32:11.962Z,20.08
2017-08-18T03:34:40.273Z,20.01
2017-08-18T03:37:08.187Z,19.96
2017-08-18T03:39:36.091Z,19.84
2017-08-18T03:42:04.003Z,19.89
2017-08-18T03:44:31.942Z,19.83
2017-08-18T03:46:59.847Z,19.85
2017-08-18T03:49:27.759Z,19.84
2017-08-18T03:51:56.448Z,19.82
2017-08-18T03:54:24.352Z,19.87
2017-08-18T03:56:52.251Z,19.94
2017-08-18T03:59:20.162Z,19.88
2017-08-18T04:01:48.068Z,19.95
2017-08-18T04:04:15.974Z,19.89
2017-08-18T04:06:44.280Z,19.88
2017-08-18T04:09:12.186Z,20.03
2017-08-18T04:11:40.093Z,20.10
2017-08-18T04:14:08.751Z,20.11
2017-08-18T04:16:36.669Z,20.18
2017-08-18T04:19:04.571Z,20.17
2017-08-18T04:21:32.479Z,20.28
2017-08-18T04:24:00.784Z,20.21
2017-08-18T04:26:28.691Z,20.38
2017-08-18T04:28:56.600Z,20.40
2017-08-18T04:31:24.899Z,20.53
2017-08-18T04:33:52.813Z,20.56
2017-08-18T04:36:20.723Z,20.58
2017-08-18T04:38:49.024Z,20.48
2017-08-18T04:41:16.940Z,20.63
2017-08-18T04:43:44.909Z,20.59
2017-08-18T04:46:12.822Z,20.64
2017-08-18T04:48:40.714Z,20.80
2017-08-18T04:51:08.820Z,20.87
2017-08-18T04:53:36.714Z,20.96
2017-08-18T04:56:04.611Z,21.22
2017-08-18T04:58:32.540Z,21.31
2017-08-18T05:01:27.211Z,21.51
2017-08-18T05:03:55.187Z,21.54
2017-08-18T05:06:23.096Z,21.68
2017-08-18T05:08:51.006Z,21.64
2017-08-18T05:11:18.923Z,21.72
2017-08-18T05:13:46.845Z,21.83
2017-08-18T05:16:14.765Z,21.92
2017-08-18T05:18:42.687Z,22.02
2017-08-18T05:21:10.583Z,22.26
2017-08-18T05:23:38.496Z,22.96
2017-08-18T05:26:06.400Z,23.61
2017-08-18T05:28:34.325Z,24.55
2017-08-18T05:31:02.214Z,25.32
2017-08-18T05:33:30.565Z,25.92
2017-08-18T05:35:58.474Z,26.63
2017-08-18T05:38:26.381Z,27.14
2017-08-18T05:40:54.299Z,27.83
2017-08-18T05:43:22.440Z,28.93
2017-08-18T05:45:50.356Z,28.72
2017-08-18T05:48:18.295Z,29.51
2017-08-18T05:50:46.212Z,29.85
2017-08-18T05:53:14.120Z,30.62
2017-08-18T05:55:42.242Z,32.19
2017-08-18T05:58:10.143Z,32.23
2017-08-18T06:00:38.331Z,32.82
2017-08-18T06:03:06.320Z,30.87
2017-08-18T06:05:34.221Z,29.06
2017-08-18T06:08:02.136Z,28.29
2017-08-18T06:10:30.100Z,27.59
2017-08-18T06:12:58.016Z,26.99
2017-08-18T06:15:25.910Z,26.42
2017-08-18T06:17:53.989Z,26.04
2017-08-18T06:20:21.887Z,25.71
2017-08-18T06:22:49.800Z,25.50
2017-08-18T06:25:17.716Z,26.21
2017-08-18T06:27:45.629Z,27.24
2017-08-18T06:30:13.580Z,28.19
2017-08-18T06:32:41.478Z,29.09
2017-08-18T06:35:09.401Z,29.49
2017-08-18T06:37:37.309Z,30.64
2017-08-18T06:40:05.227Z,31.11
2017-08-18T06:42:33.139Z,30.42
2017-08-18T06:45:01.785Z,30.38
2017-08-18T06:47:29.395Z,30.81
2017-08-18T06:49:57.309Z,30.67
2017-08-18T06:52:25.229Z,30.83
2017-08-18T06:54:53.217Z,31.63
2017-08-18T06:57:21.182Z,31.60
2017-08-18T06:59:49.082Z,31.86
2017-08-18T07:02:17.004Z,32.05
2017-08-18T07:04:44.907Z,32.88
2017-08-18T07:07:12.954Z,33.24
2017-08-18T07:09:40.860Z,32.95
2017-08-18T07:12:08.772Z,32.55
2017-08-18T07:14:36.682Z,33.16
2017-08-18T07:17:04.596Z,33.84
2017-08-18T07:19:32.519Z,31.89
2017-08-18T07:22:00.434Z,31.09
2017-08-18T07:24:28.335Z,30.22
2017-08-18T07:26:56.235Z,30.43
2017-08-18T07:29:24.280Z,30.04
2017-08-18T07:31:52.189Z,30.13
2017-08-18T07:34:20.090Z,30.32
2017-08-18T07:36:48.002Z,30.38
2017-08-18T07:39:15.907Z,30.19
2017-08-18T07:41:43.828Z,29.73
2017-08-18T07:44:11.752Z,29.07
2017-08-18T07:46:39.862Z,29.28
2017-08-18T07:49:07.762Z,29.76
2017-08-18T07:51:35.659Z,30.80
2017-08-18T07:54:03.566Z,31.53
2017-08-18T07:56:31.477Z,31.78
2017-08-18T07:58:59.399Z,31.61
2017-08-18T08:01:27.308Z,32.28
2017-08-18T08:03:55.216Z,31.95
2017-08-18T08:06:23.364Z,30.94
2017-08-18T08:08:51.280Z,30.22
2017-08-18T08:11:19.319Z,29.69
2017-08-18T08:13:47.430Z,30.29
2017-08-18T08:16:15.326Z,30.32
2017-08-18T08:18:43.217Z,30.21
2017-08-18T08:21:11.127Z,29.98
2017-08-18T08:23:39.022Z,30.58
2017-08-18T08:26:06.947Z,31.24
2017-08-18T08:28:34.860Z,32.14
2017-08-18T08:31:02.775Z,31.11
2017-08-18T08:33:30.675Z,31.60
2017-08-18T08:35:58.578Z,31.71
2017-08-18T08:38:26.478Z,31.42
2017-08-18T08:40:54.596Z,30.62
2017-08-18T08:43:22.496Z,30.49
2017-08-18T08:45:50.401Z,30.58
2017-08-18T08:48:18.302Z,30.79
2017-08-18T08:50:46.197Z,30.59
2017-08-18T08:53:14.101Z,30.14
2017-08-18T08:55:42.011Z,29.99
2017-08-18T08:58:09.924Z,30.48
2017-08-18T09:02:31.087Z,31.36
2017-08-18T09:04:58.997Z,31.86
2017-08-18T09:07:26.898Z,33.98
2017-08-18T09:09:54.798Z,34.66
2017-08-18T09:12:22.758Z,35.43
2017-08-18T09:14:50.982Z,34.58
2017-08-18T09:17:18.878Z,33.97
2017-08-18T09:19:46.785Z,33.00
2017-08-18T09:22:14.704Z,34.14
2017-08-18T09:24:42.823Z,35.44
2017-08-18T09:27:10.723Z,35.86
2017-08-18T09:29:38.628Z,36.43
2017-08-18T09:32:06.535Z,35.33
2017-08-18T09:34:34.429Z,35.42
2017-08-18T09:37:02.367Z,36.07
2017-08-18T09:39:30.372Z,36.25
2017-08-18T09:41:58.274Z,36.04
2017-08-18T09:44:26.184Z,36.14
2017-08-18T09:46:54.238Z,37.32
2017-08-18T09:49:33.849Z,37.72
2017-08-18T09:52:13.532Z,37.92
2017-08-18T09:54:53.310Z,36.93
2017-08-18T09:57:33.222Z,37.39
2017-08-18T10:00:01.134Z,37.24
2017-08-18T10:02:29.074Z,37.07
2017-08-18T10:04:56.975Z,35.74
2017-08-18T10:07:24.884Z,36.81
2017-08-18T10:09:52.786Z,37.26
2017-08-18T10:12:20.994Z,37.80
2017-08-18T10:14:48.908Z,36.77
2017-08-18T10:17:16.802Z,36.93
2017-08-18T10:19:45.064Z,36.71
2017-08-18T10:22:12.963Z,36.57
2017-08-18T10:24:40.867Z,36.81
2017-08-18T10:27:08.784Z,37.13
2017-08-18T10:29:36.693Z,35.95
2017-08-18T10:32:04.598Z,34.97
2017-08-18T10:34:32.508Z,34.08
2017-08-18T10:37:00.410Z,33.92
2017-08-18T10:39:28.311Z,33.68
2017-08-18T10:41:56.488Z,33.81
2017-08-18T10:44:24.383Z,32.77
2017-08-18T10:46:52.292Z,32.65
2017-08-18T10:49:20.211Z,31.86
2017-08-18T10:51:48.115Z,31.42
2017-08-18T10:54:16.028Z,31.47
2017-08-18T10:56:43.922Z,31.77
2017-08-18T10:59:11.851Z,32.04
2017-08-18T11:01:39.783Z,31.97
2017-08-18T11:04:07.690Z,32.85
2017-08-18T11:06:35.587Z,32.73
2017-08-18T11:09:03.598Z,32.29
2017-08-18T11:11:31.507Z,32.44
2017-08-18T11:13:59.397Z,32.40
2017-08-18T11:16:27.315Z,31.38
2017-08-18T11:18:55.328Z,31.36
2017-08-18T11:21:23.234Z,31.14
2017-08-18T11:23:51.154Z,31.32
2017-08-18T11:26:19.331Z,30.93
2017-08-18T11:28:47.240Z,30.08
2017-08-18T11:31:15.148Z,29.83
2017-08-18T11:33:43.054Z,29.69
2017-08-18T11:36:10.957Z,29.42
2017-08-18T11:38:38.866Z,29.31
2017-08-18T11:41:06.771Z,29.44
2017-08-18T11:43:34.688Z,29.26
2017-08-18T11:46:02.679Z,29.28
2017-08-18T11:48:30.601Z,29.24
2017-08-18T11:50:58.498Z,29.54
2017-08-18T11:53:26.588Z,29.34
2017-08-18T11:55:54.482Z,29.64
2017-08-18T11:58:22.378Z,29.32
2017-08-18T12:00:50.286Z,29.10
2017-08-18T12:03:18.196Z,29.00
2017-08-18T12:05:46.102Z,28.92
2017-08-18T12:08:14.101Z,28.69
2017-08-18T12:10:41.997Z,28.94
2017-08-18T12:13:09.907Z,29.08
2017-08-18T12:15:37.815Z,29.14
2017-08-18T12:18:05.710Z,29.43
2017-08-18T12:20:34.086Z,29.35
2017-08-18T12:23:01.991Z,29.28
2017-08-18T12:25:29.900Z,29.48
2017-08-18T12:27:57.838Z,29.29
2017-08-18T12:30:25.734Z,29.25
2017-08-18T12:32:53.652Z,29.29
2017-08-18T12:35:21.651Z,29.36
2017-08-18T12:37:49.577Z,28.99
2017-08-18T12:40:17.480Z,28.78
2017-08-18T12:42:45.389Z,28.89
2017-08-18T12:45:13.300Z,28.77
2017-08-18T12:47:41.217Z,28.78
2017-08-18T12:50:09.124Z,28.51
2017-08-18T12:52:37.451Z,28.39
2017-08-18T12:55:05.361Z,28.22
2017-08-18T12:57:33.257Z,28.17
2017-08-18T13:00:01.434Z,28.07
2017-08-18T13:02:29.327Z,27.99
2017-08-18T13:04:57.234Z,28.09
2017-08-18T13:07:25.163Z,28.04
2017-08-18T13:09:53.075Z,27.97
2017-08-18T13:12:20.974Z,28.10
2017-08-18T13:14:49.322Z,28.20
2017-08-18T13:17:17.247Z,28.33
2017-08-18T13:19:45.152Z,28.74
2017-08-18T13:22:13.053Z,28.92
2017-08-18T13:24:40.949Z,29.22
2017-08-18T13:27:08.863Z,29.30
2017-08-18T13:29:36.772Z,29.29
2017-08-18T13:32:04.859Z,29.23
2017-08-18T13:34:32.755Z,29.21
2017-08-18T13:37:00.657Z,29.45
2017-08-18T13:39:28.562Z,29.38
2017-08-18T13:41:56.467Z,29.62
2017-08-18T13:44:24.380Z,30.05
2017-08-18T13:46:52.274Z,30.15
2017-08-18T13:49:20.191Z,30.26
2017-08-18T13:51:48.097Z,30.18
2017-08-18T13:54:16.012Z,30.29
2017-08-18T13:56:43.923Z,29.98
2017-08-18T13:59:12.190Z,29.81
2017-08-18T14:01:40.116Z,29.60
2017-08-18T14:04:08.020Z,29.61
2017-08-18T14:06:35.945Z,29.87
2017-08-18T14:09:04.149Z,29.61
2017-08-18T14:11:32.054Z,29.42
2017-08-18T14:13:59.945Z,29.53
2017-08-18T14:16:27.863Z,29.62
2017-08-18T14:18:55.773Z,29.49
2017-08-18T14:21:24.064Z,29.46
2017-08-18T14:23:51.971Z,29.56
2017-08-18T14:26:25.826Z,29.45
2017-08-18T14:28:53.744Z,29.24
2017-08-18T14:31:21.644Z,29.24
2017-08-18T14:33:49.552Z,28.98
2017-08-18T14:36:17.455Z,28.97
2017-08-18T14:38:45.376Z,29.14
2017-08-18T14:41:13.285Z,29.20
2017-08-18T14:43:41.209Z,29.34
2017-08-18T14:46:09.136Z,29.46
2017-08-18T14:48:37.047Z,29.21
2017-08-18T14:51:04.956Z,29.38
2017-08-18T14:53:33.096Z,29.72
2017-08-18T14:56:01.000Z,29.81
2017-08-18T14:58:28.900Z,29.69
2017-08-18T15:00:56.990Z,29.17
2017-08-18T15:03:24.971Z,29.14
2017-08-18T15:05:52.878Z,29.20
2017-08-18T15:08:20.794Z,28.97
2017-08-18T15:10:48.732Z,28.64
2017-08-18T15:13:16.635Z,28.37
2017-08-18T15:15:44.709Z,28.13
2017-08-18T15:18:12.628Z,28.07
2017-08-18T15:20:40.531Z,27.87
2017-08-18T15:23:08.434Z,27.92
2017-08-18T15:25:36.334Z,28.09
2017-08-18T15:28:04.250Z,28.18
2017-08-18T15:30:32.163Z,28.24
2017-08-18T15:33:00.062Z,28.39
2017-08-18T15:35:27.971Z,28.42
2017-08-18T15:37:55.895Z,28.56
2017-08-18T15:40:23.795Z,28.81
2017-08-18T15:42:51.864Z,28.97
2017-08-18T15:45:19.802Z,29.14
2017-08-18T15:47:47.703Z,29.16
2017-08-18T15:50:15.610Z,29.01
2017-08-18T15:52:43.527Z,29.08
2017-08-18T15:55:11.436Z,29.09
2017-08-18T15:57:39.344Z,29.15
2017-08-18T16:00:07.669Z,29.08
2017-08-18T16:02:35.566Z,28.77
2017-08-18T16:05:03.466Z,28.71
2017-08-18T16:07:31.380Z,28.80
2017-08-18T16:09:59.330Z,28.95
2017-08-18T16:12:27.249Z,29.05
2017-08-18T16:14:55.163Z,29.11
2017-08-18T16:17:23.093Z,29.00
2017-08-18T16:19:51.003Z,28.85
2017-08-18T16:22:18.919Z,28.72
2017-08-18T16:24:46.831Z,28.66
2017-08-18T16:27:15.124Z,28.53
2017-08-18T16:29:43.031Z,28.19
2017-08-18T16:32:10.938Z,28.16
2017-08-18T16:34:38.834Z,27.95
2017-08-18T16:37:06.730Z,27.90
2017-08-18T16:39:34.638Z,27.91
2017-08-18T16:42:02.533Z,28.02
2017-08-18T16:44:30.463Z,27.53
2017-08-18T16:46:58.376Z,27.50
2017-08-18T16:49:26.302Z,27.57
2017-08-18T16:51:54.204Z,27.54
2017-08-18T16:54:22.103Z,27.55
2017-08-18T16:56:50.011Z,27.40
2017-08-18T16:59:17.927Z,27.28
2017-08-18T17:01:45.834Z,27.20
2017-08-18T17:04:13.740Z,27.18
2017-08-18T17:06:41.646Z,27.10
2017-08-18T17:09:09.560Z,27.03
2017-08-18T17:11:37.655Z,26.98
2017-08-18T17:14:05.554Z,26.77
2017-08-18T17:16:33.755Z,26.71
2017-08-18T17:19:01.923Z,26.74
2017-08-18T17:21:29.832Z,26.84
2017-08-18T17:23:57.737Z,26.73
2017-08-18T17:26:25.651Z,26.59
2017-08-18T17:28:53.758Z,26.30
2017-08-18T17:31:21.665Z,26.32
2017-08-18T17:33:49.562Z,26.36
2017-08-18T17:36:17.778Z,26.19
2017-08-18T17:38:45.686Z,25.94
2017-08-18T17:41:13.599Z,25.66
2017-08-18T17:43:41.512Z,25.45
2017-08-18T17:46:09.419Z,25.24
2017-08-18T17:48:37.336Z,25.13
2017-08-18T17:51:05.247Z,24.92
2017-08-18T17:53:33.355Z,24.75
2017-08-18T17:56:01.261Z,24.27
2017-08-18T17:58:29.168Z,23.79
2017-08-18T18:00:57.075Z,23.31
2017-08-18T18:03:24.971Z,22.97
2017-08-18T18:05:52.888Z,22.64
2017-08-18T18:08:20.788Z,22.26
2017-08-18T18:10:48.978Z,22.04
2017-08-18T18:13:16.884Z,21.89
2017-08-18T18:15:44.992Z,21.68
2017-08-18T18:18:12.886Z,21.51
2017-08-18T18:20:40.795Z,21.62
2017-08-18T18:23:08.712Z,21.58
2017-08-18T18:25:36.645Z,21.41
2017-08-18T18:28:04.870Z,21.45
2017-08-18T18:30:32.769Z,21.41
2017-08-18T18:33:00.881Z,21.28
2017-08-18T18:35:28.800Z,21.28
2017-08-18T18:37:56.702Z,21.41
2017-08-18T18:40:24.624Z,21.49
2017-08-18T18:42:52.536Z,21.40
2017-08-18T18:45:20.468Z,21.18
2017-08-18T18:47:48.371Z,21.22
2017-08-18T18:50:16.296Z,21.20
2017-08-18T18:52:44.282Z,21.26
2017-08-18T18:55:12.215Z,21.42
2017-08-18T18:57:40.116Z,21.47
2017-08-18T19:00:08.016Z,21.47
2017-08-18T19:02:35.935Z,21.38
2017-08-18T19:05:03.856Z,21.36
2017-08-18T19:07:31.770Z,21.34
2017-08-18T19:09:59.663Z,21.43
2017-08-18T19:12:27.580Z,21.49
2017-08-18T19:14:55.479Z,21.34
2017-08-18T19:17:23.375Z,21.23
2017-08-18T19:19:51.296Z,21.21
2017-08-18T19:22:19.212Z,21.18
2017-08-18T19:24:47.114Z,21.22
2017-08-18T19:27:15.024Z,21.20
2017-08-18T19:29:42.945Z,21.24
2017-08-18T19:32:10.847Z,21.21
2017-08-18T19:34:39.037Z,21.12
2017-08-18T19:37:06.949Z,21.17
2017-08-18T19:39:34.860Z,21.24
2017-08-18T19:42:02.760Z,21.22
2017-08-18T19:44:30.676Z,21.33
2017-08-18T19:46:58.578Z,21.33
2017-08-18T19:49:26.500Z,21.42
2017-08-18T19:51:54.407Z,21.39
2017-08-18T19:54:22.315Z,21.31
2017-08-18T19:56:50.233Z,21.33
2017-08-18T19:59:18.149Z,21.16
2017-08-18T20:01:46.064Z,21.04
2017-08-18T20:04:13.959Z,21.00
2017-08-18T20:06:42.093Z,20.97
2017-08-18T20:09:09.995Z,20.90
2017-08-18T20:11:37.900Z,20.95
2017-08-18T20:14:05.906Z,20.92
2017-08-18T20:16:33.870Z,20.97
2017-08-18T20:19:01.792Z,21.07
2017-08-18T20:21:29.686Z,20.99
2017-08-18T20:23:57.598Z,20.96
2017-08-18T20:26:25.507Z,20.92
2017-08-18T20:28:53.419Z,20.92
2017-08-18T20:31:21.340Z,20.95
2017-08-18T20:33:49.464Z,20.94
2017-08-18T20:36:17.376Z,20.79
2017-08-18T20:38:45.275Z,20.79
2017-08-18T20:41:13.187Z,20.70
2017-08-18T20:43:41.192Z,20.69
2017-08-18T20:46:09.162Z,20.67
2017-08-18T20:48:37.079Z,20.63
2017-08-18T20:51:05.287Z,20.66
2017-08-18T20:53:33.370Z,20.66
2017-08-18T20:56:01.283Z,20.68
2017-08-18T20:58:29.196Z,20.64
2017-08-18T21:00:57.238Z,20.57
2017-08-18T21:03:25.135Z,20.56
2017-08-18T21:05:53.052Z,20.61
2017-08-18T21:08:20.976Z,20.54
2017-08-18T21:10:48.882Z,20.47
2017-08-18T21:13:16.796Z,20.45
2017-08-18T21:15:44.712Z,20.39
2017-08-18T21:18:12.633Z,20.40
2017-08-18T21:20:40.544Z,20.35
2017-08-18T21:23:08.464Z,20.36
2017-08-18T21:25:36.384Z,20.28
2017-08-18T21:28:04.402Z,20.34
2017-08-18T21:30:32.313Z,20.35
2017-08-18T21:33:00.234Z,20.32
2017-08-18T21:35:28.187Z,20.30
2017-08-18T21:37:56.082Z,20.18
2017-08-18T21:40:24.005Z,20.08
2017-08-18T21:42:51.902Z,20.09
2017-08-18T21:45:19.815Z,20.05
2017-08-18T21:47:47.720Z,19.96
2017-08-18T21:50:15.622Z,19.94
2017-08-18T21:52:43.513Z,19.90
2017-08-18T21:55:11.534Z,19.89
2017-08-18T21:57:39.430Z,19.85
2017-08-18T22:00:07.338Z,19.81
2017-08-18T22:02:35.602Z,19.74
2017-08-18T22:05:03.520Z,19.76
2017-08-18T22:07:31.431Z,19.67
2017-08-18T22:09:59.344Z,19.55
2017-08-18T22:12:27.245Z,19.53
2017-08-18T22:14:55.151Z,19.43
2017-08-18T22:17:23.062Z,19.39
2017-08-18T22:19:50.962Z,19.30
2017-08-18T22:22:18.903Z,19.30
2017-08-18T22:24:46.799Z,19.16
2017-08-18T22:27:14.752Z,19.07
2017-08-18T22:29:42.647Z,18.92
2017-08-18T22:32:10.935Z,18.88
2017-08-18T22:34:38.844Z,18.82
2017-08-18T22:37:06.739Z,18.87
2017-08-18T22:39:34.648Z,18.84
2017-08-18T22:42:02.542Z,18.84
2017-08-18T22:44:30.460Z,18.75
2017-08-18T22:46:58.371Z,18.76
2017-08-18T22:49:26.314Z,18.69
2017-08-18T22:51:54.224Z,18.72
2017-08-18T22:54:22.418Z,18.67
2017-08-18T22:56:50.328Z,18.62
2017-08-18T22:59:18.232Z,18.58
2017-08-18T23:01:46.134Z,18.50
2017-08-18T23:04:14.182Z,18.42
2017-08-18T23:06:42.096Z,18.36
2017-08-18T23:09:10.009Z,18.35
2017-08-18T23:11:38.242Z,18.36
2017-08-18T23:14:06.156Z,18.37
2017-08-18T23:16:34.390Z,18.40
2017-08-18T23:19:02.283Z,18.43
2017-08-18T23:21:30.199Z,18.48
2017-08-18T23:23:58.099Z,18.46
2017-08-18T23:26:26.004Z,18.41
2017-08-18T23:28:53.905Z,18.39
2017-08-18T23:31:21.807Z,18.44
2017-08-18T23:33:49.719Z,18.36
2017-08-18T23:36:17.610Z,18.24
2017-08-18T23:38:45.536Z,18.29
2017-08-18T23:41:13.435Z,18.32
2017-08-18T23:43:41.348Z,18.36
2017-08-18T23:46:09.237Z,18.28
2017-08-18T23:48:37.148Z,18.25
2017-08-18T23:51:05.062Z,18.21
2017-08-18T23:53:32.954Z,18.16
2017-08-18T23:56:00.876Z,18.11
2017-08-18T23:58:28.783Z,18.07
